Terminal Aerodrome Forecast
Issued by NWS

Home | Current Version | Previous Version | Graphics & Text | Print | Product List | Glossary On
Versions: 1 2 3 4 5 6 7 8 9 10 11 12 13
000
FTUS43 KGRB 180500
TAFCWA
TAF
KCWA 180520Z 1806/1906 VRB04KT P6SM SKC
     FM180800 36008KT P6SM SKC
     FM181400 09011G16KT P6SM SCT200
     FM190100 10008KT P6SM BKN150
      AMD LTD TO CLD VIS AND WIND TIL 181200=

USA.gov is the U.S. government's official web portal to all federal, state and local government web resources and services.